createdAt,value
2018-08-18T00:01:29.189Z,99.90
2018-08-18T00:04:21.621Z,99.90
2018-08-18T00:06:59.009Z,99.90
2018-08-18T00:09:36.684Z,99.90
2018-08-18T00:12:18.354Z,99.90
2018-08-18T00:14:54.150Z,99.90
2018-08-18T00:17:30.982Z,99.90
2018-08-18T00:20:09.199Z,99.90
2018-08-18T00:22:45.027Z,99.90
2018-08-18T00:25:24.194Z,99.90
2018-08-18T00:28:04.298Z,99.90
2018-08-18T00:30:43.957Z,99.90
2018-08-18T00:33:23.067Z,99.90
2018-08-18T00:36:00.115Z,99.90
2018-08-18T00:38:36.882Z,99.90
2018-08-18T00:41:12.259Z,99.90
2018-08-18T00:43:49.858Z,99.90
2018-08-18T00:46:31.671Z,99.90
2018-08-18T00:49:08.966Z,99.90
2018-08-18T00:51:48.486Z,99.90
2018-08-18T00:54:24.590Z,99.90
2018-08-18T00:57:02.570Z,99.90
2018-08-18T00:59:45.030Z,99.90
2018-08-18T01:02:22.311Z,99.90
2018-08-18T01:05:01.606Z,99.90
2018-08-18T01:07:37.585Z,99.90
2018-08-18T01:10:14.595Z,99.90
2018-08-18T01:12:50.835Z,99.90
2018-08-18T01:15:28.466Z,99.90
2018-08-18T01:18:04.198Z,99.90
2018-08-18T01:20:40.163Z,99.90
2018-08-18T01:23:16.744Z,99.90
2018-08-18T01:25:53.473Z,99.90
2018-08-18T01:28:29.026Z,99.90
2018-08-18T01:31:16.827Z,99.90
2018-08-18T01:33:53.942Z,99.90
2018-08-18T01:36:30.435Z,99.90
2018-08-18T01:39:08.707Z,99.90
2018-08-18T01:41:47.493Z,99.90
2018-08-18T01:44:25.566Z,99.90
2018-08-18T01:47:07.218Z,99.90
2018-08-18T01:49:44.768Z,99.90
2018-08-18T01:52:22.735Z,99.90
2018-08-18T01:55:00.062Z,99.90
2018-08-18T01:57:35.743Z,99.90
2018-08-18T02:00:24.363Z,99.90
2018-08-18T02:03:00.136Z,99.90
2018-08-18T02:05:36.910Z,99.90
2018-08-18T02:08:12.566Z,99.90
2018-08-18T02:10:50.085Z,99.90
2018-08-18T02:13:26.934Z,1.00
2018-08-18T02:16:03.922Z,1.00
2018-08-18T02:18:42.913Z,1.00
2018-08-18T02:21:29.855Z,1.00
2018-08-18T02:24:07.141Z,1.00
2018-08-18T02:26:42.966Z,1.00
2018-08-18T02:29:20.034Z,1.00
2018-08-18T02:31:57.130Z,1.00
2018-08-18T02:34:32.856Z,1.00
2018-08-18T02:37:09.568Z,1.00
2018-08-18T02:39:45.498Z,1.00
2018-08-18T02:42:21.805Z,1.00
2018-08-18T02:45:00.776Z,1.00
2018-08-18T02:47:37.534Z,1.00
2018-08-18T02:50:15.037Z,1.00
2018-08-18T02:52:50.578Z,1.00
2018-08-18T02:55:29.310Z,1.00
2018-08-18T02:58:06.047Z,1.00
2018-08-18T03:00:43.580Z,1.00
2018-08-18T03:03:20.212Z,1.00
2018-08-18T03:06:00.115Z,1.00
2018-08-18T03:08:37.104Z,1.00
2018-08-18T03:11:13.536Z,1.00
2018-08-18T03:13:51.485Z,1.00
2018-08-18T03:16:30.838Z,1.00
2018-08-18T03:19:07.903Z,1.00
2018-08-18T03:21:45.160Z,1.00
2018-08-18T03:24:21.781Z,1.00
2018-08-18T03:26:59.570Z,1.00
2018-08-18T03:29:43.446Z,1.00
2018-08-18T03:32:20.053Z,1.00
2018-08-18T03:34:55.748Z,1.00
2018-08-18T03:37:34.508Z,1.00
2018-08-18T03:40:11.130Z,1.00
2018-08-18T03:42:46.946Z,1.00
2018-08-18T03:45:18.305Z,1.00
2018-08-18T03:47:55.711Z,1.00
2018-08-18T03:50:42.575Z,1.00
2018-08-18T03:53:19.357Z,1.00
2018-08-18T03:56:00.736Z,1.00
2018-08-18T03:58:41.843Z,1.00
2018-08-18T04:01:23.150Z,1.00
2018-08-18T04:04:04.262Z,1.00
2018-08-18T04:06:42.963Z,1.00
2018-08-18T04:09:24.948Z,1.00
2018-08-18T04:11:57.409Z,1.00
2018-08-18T04:14:45.642Z,1.00
2018-08-18T04:17:28.046Z,1.00
2018-08-18T04:20:03.823Z,1.00
2018-08-18T04:22:40.143Z,1.00
2018-08-18T04:25:16.343Z,1.00
2018-08-18T04:27:53.568Z,1.00
2018-08-18T04:30:29.485Z,1.00
2018-08-18T04:33:08.540Z,1.00
2018-08-18T04:35:51.346Z,1.00
2018-08-18T04:38:21.620Z,1.00
2018-08-18T04:40:59.430Z,1.00
2018-08-18T04:43:35.256Z,1.00
2018-08-18T04:46:11.630Z,1.00
2018-08-18T04:48:48.720Z,1.00
2018-08-18T04:51:25.505Z,1.00
2018-08-18T04:54:02.964Z,1.00
2018-08-18T04:56:40.078Z,1.00
2018-08-18T04:59:15.885Z,1.00
2018-08-18T05:01:51.677Z,1.00
2018-08-18T05:04:27.758Z,1.00
2018-08-18T05:07:04.258Z,1.00
2018-08-18T05:09:43.077Z,1.00
2018-08-18T05:12:20.898Z,1.00
2018-08-18T05:14:57.778Z,1.00
2018-08-18T05:17:34.251Z,1.00
2018-08-18T05:20:15.583Z,1.00
2018-08-18T05:22:51.335Z,1.00
2018-08-18T05:25:38.154Z,1.00
2018-08-18T05:28:15.418Z,1.00
2018-08-18T05:30:54.030Z,1.00
2018-08-18T05:33:32.850Z,1.00
2018-08-18T05:36:10.222Z,1.00
2018-08-18T05:38:51.355Z,1.00
2018-08-18T05:41:28.928Z,1.00
2018-08-18T05:44:05.135Z,1.00
2018-08-18T05:46:41.997Z,1.00
2018-08-18T05:49:19.237Z,1.00
2018-08-18T05:51:56.648Z,1.00
2018-08-18T05:54:32.559Z,1.00
2018-08-18T05:57:08.950Z,1.00
2018-08-18T05:59:46.442Z,99.90
2018-08-18T06:02:23.198Z,99.90
2018-08-18T06:04:59.985Z,99.90
2018-08-18T06:07:39.181Z,91.70
2018-08-18T06:10:16.666Z,3.90
2018-08-18T06:12:52.406Z,1.00
2018-08-18T06:15:31.466Z,99.90
2018-08-18T06:18:09.714Z,44.40
2018-08-18T06:20:46.748Z,1.00
2018-08-18T06:23:23.474Z,99.90
2018-08-18T06:26:00.678Z,99.90
2018-08-18T06:28:37.478Z,1.00
2018-08-18T06:31:16.849Z,99.90
2018-08-18T06:33:52.705Z,1.00
2018-08-18T06:36:28.224Z,1.00
2018-08-18T06:39:05.155Z,99.90
2018-08-18T06:41:43.240Z,1.00
2018-08-18T06:44:27.498Z,1.00
2018-08-18T06:47:04.145Z,99.90
2018-08-18T06:49:35.765Z,99.90
2018-08-18T06:52:14.868Z,1.00
2018-08-18T06:54:52.116Z,1.00
2018-08-18T06:57:38.428Z,1.00
2018-08-18T07:00:17.349Z,1.00
2018-08-18T07:02:53.535Z,1.00
2018-08-18T07:05:33.131Z,1.00
2018-08-18T07:08:09.734Z,1.00
2018-08-18T07:10:49.824Z,1.00
2018-08-18T07:13:25.551Z,1.00
2018-08-18T07:16:01.332Z,1.00
2018-08-18T07:18:37.240Z,1.00
2018-08-18T07:21:13.232Z,1.00
2018-08-18T07:23:49.443Z,1.00
2018-08-18T07:26:26.491Z,1.00
2018-08-18T07:29:02.563Z,99.90
2018-08-18T07:31:38.451Z,99.90
2018-08-18T07:34:15.136Z,99.90
2018-08-18T07:36:52.154Z,99.90
2018-08-18T07:39:28.859Z,99.90
2018-08-18T07:42:07.737Z,99.90
2018-08-18T07:44:44.705Z,99.90
2018-08-18T07:47:30.455Z,99.90
2018-08-18T07:50:07.243Z,99.90
2018-08-18T07:52:39.864Z,99.90
2018-08-18T07:55:15.555Z,99.90
2018-08-18T07:57:57.064Z,99.90
2018-08-18T08:00:37.418Z,99.90
2018-08-18T08:03:14.549Z,99.90
2018-08-18T08:05:53.831Z,99.90
2018-08-18T08:08:34.925Z,99.90
2018-08-18T08:11:14.266Z,1.00
2018-08-18T08:13:50.640Z,1.00
2018-08-18T08:16:28.117Z,99.90
2018-08-18T08:19:05.743Z,99.90
2018-08-18T08:21:42.849Z,99.90
2018-08-18T08:24:22.442Z,96.30
2018-08-18T08:26:58.497Z,11.90
2018-08-18T08:29:39.270Z,1.00
2018-08-18T08:32:16.211Z,1.00
2018-08-18T08:34:53.906Z,1.00
2018-08-18T08:37:29.824Z,1.00
2018-08-18T08:40:10.766Z,1.00
2018-08-18T08:42:47.594Z,1.00
2018-08-18T08:45:27.526Z,1.00
2018-08-18T08:48:04.527Z,1.00
2018-08-18T08:50:42.385Z,1.00
2018-08-18T08:53:19.525Z,99.90
2018-08-18T08:55:58.980Z,99.90
2018-08-18T08:58:40.401Z,99.90
2018-08-18T09:01:17.025Z,99.90
2018-08-18T09:03:54.132Z,99.90
2018-08-18T09:06:35.505Z,99.90
2018-08-18T09:09:12.074Z,99.90
2018-08-18T09:11:51.822Z,99.90
2018-08-18T09:14:27.555Z,99.90
2018-08-18T09:17:04.799Z,99.90
2018-08-18T09:19:41.720Z,99.90
2018-08-18T09:22:19.130Z,99.90
2018-08-18T09:24:55.269Z,99.90
2018-08-18T09:27:31.218Z,99.90
2018-08-18T09:30:08.879Z,99.90
2018-08-18T09:32:46.150Z,99.90
2018-08-18T09:35:25.418Z,99.90
2018-08-18T09:38:03.025Z,99.90
2018-08-18T09:40:40.076Z,99.90
2018-08-18T09:43:25.320Z,1.00
2018-08-18T09:46:02.820Z,1.00
2018-08-18T09:48:40.528Z,58.80
2018-08-18T09:51:16.207Z,73.50
2018-08-18T09:53:52.932Z,83.50
2018-08-18T09:56:30.216Z,80.50
2018-08-18T09:59:07.138Z,85.70
2018-08-18T10:01:44.591Z,87.30
2018-08-18T10:04:21.536Z,92.10
2018-08-18T10:07:00.723Z,92.20
2018-08-18T10:09:36.494Z,92.80
2018-08-18T10:12:16.166Z,94.00
2018-08-18T10:14:52.301Z,94.00
2018-08-18T10:17:30.158Z,94.30
2018-08-18T10:20:06.296Z,94.70
2018-08-18T10:22:42.260Z,94.10
2018-08-18T10:25:18.099Z,94.60
2018-08-18T10:27:55.948Z,94.40
2018-08-18T10:30:34.076Z,94.40
2018-08-18T10:33:12.114Z,93.80
2018-08-18T10:35:48.350Z,93.50
2018-08-18T10:38:24.016Z,93.60
2018-08-18T10:41:02.473Z,94.10
2018-08-18T10:43:39.485Z,94.00
2018-08-18T10:46:16.453Z,95.30
2018-08-18T10:48:52.133Z,95.40
2018-08-18T10:51:39.367Z,95.40
2018-08-18T10:54:15.800Z,94.80
2018-08-18T10:56:52.874Z,94.20
2018-08-18T10:59:33.892Z,94.80
2018-08-18T11:02:10.366Z,94.80
2018-08-18T11:04:46.762Z,95.50
2018-08-18T11:07:22.854Z,95.60
2018-08-18T11:10:00.601Z,96.00
2018-08-18T11:12:41.155Z,95.10
2018-08-18T11:15:18.834Z,94.40
2018-08-18T11:17:56.661Z,94.60
2018-08-18T11:20:36.832Z,94.50
2018-08-18T11:23:18.151Z,95.50
2018-08-18T11:25:56.034Z,94.60
2018-08-18T11:28:32.987Z,94.70
2018-08-18T11:31:10.561Z,94.50
2018-08-18T11:33:47.003Z,94.80
2018-08-18T11:36:24.246Z,94.90
2018-08-18T11:39:03.142Z,95.00
2018-08-18T11:41:40.099Z,94.00
2018-08-18T11:44:15.754Z,92.90
2018-08-18T11:46:51.924Z,93.80
2018-08-18T11:49:29.659Z,94.00
2018-08-18T11:52:05.250Z,94.00
2018-08-18T11:54:42.394Z,93.50
2018-08-18T11:57:19.679Z,93.30
2018-08-18T11:59:57.014Z,93.70
2018-08-18T12:02:33.825Z,92.80
2018-08-18T12:05:13.428Z,92.40
2018-08-18T12:07:50.995Z,92.50
2018-08-18T12:10:28.009Z,92.90
2018-08-18T12:13:06.073Z,91.90
2018-08-18T12:15:51.432Z,91.80
2018-08-18T12:18:30.005Z,91.70
2018-08-18T12:21:06.107Z,91.80
2018-08-18T12:23:46.360Z,91.60
2018-08-18T12:26:23.950Z,91.50
2018-08-18T12:29:03.089Z,91.70
2018-08-18T12:31:39.578Z,92.00
2018-08-18T12:34:18.380Z,92.50
2018-08-18T12:36:57.902Z,91.70
2018-08-18T12:39:35.701Z,91.90
2018-08-18T12:42:16.541Z,91.70
2018-08-18T12:44:52.274Z,91.80
2018-08-18T12:47:30.002Z,92.00
2018-08-18T12:50:08.013Z,91.50
2018-08-18T12:52:48.981Z,91.80
2018-08-18T12:55:25.996Z,91.10
2018-08-18T12:58:04.012Z,91.80
2018-08-18T13:00:43.355Z,91.20
2018-08-18T13:03:20.387Z,91.50
2018-08-18T13:05:57.749Z,90.90
2018-08-18T13:08:33.419Z,90.90
2018-08-18T13:11:09.423Z,91.30
2018-08-18T13:13:47.036Z,91.60
2018-08-18T13:16:22.813Z,91.40
2018-08-18T13:19:03.951Z,91.80
2018-08-18T13:21:39.916Z,91.90
2018-08-18T13:24:17.336Z,91.20
2018-08-18T13:26:54.262Z,91.00
2018-08-18T13:29:30.049Z,91.10
2018-08-18T13:32:07.141Z,90.50
2018-08-18T13:34:44.600Z,90.90
2018-08-18T13:37:20.480Z,90.50
2018-08-18T13:40:02.156Z,89.80
2018-08-18T13:42:42.078Z,90.00
2018-08-18T13:45:25.763Z,90.00
2018-08-18T13:48:07.361Z,90.20
2018-08-18T13:50:43.485Z,89.00
2018-08-18T13:53:21.261Z,88.60
2018-08-18T13:55:56.637Z,87.90
2018-08-18T13:58:33.437Z,88.20
2018-08-18T14:01:20.696Z,89.10
2018-08-18T14:03:57.349Z,89.60
2018-08-18T14:06:39.714Z,87.90
2018-08-18T14:09:11.119Z,87.30
2018-08-18T14:11:48.629Z,86.80
2018-08-18T14:14:24.751Z,85.20
2018-08-18T14:17:02.050Z,86.20
2018-08-18T14:19:43.612Z,87.30
2018-08-18T14:22:21.375Z,87.80
2018-08-18T14:25:00.944Z,88.40
2018-08-18T14:27:36.770Z,87.00
2018-08-18T14:30:13.970Z,86.40
2018-08-18T14:32:53.790Z,85.40
2018-08-18T14:35:33.972Z,86.00
2018-08-18T14:38:11.059Z,87.10
2018-08-18T14:40:50.054Z,87.50
2018-08-18T14:43:32.192Z,87.70
2018-08-18T14:46:10.000Z,87.50
2018-08-18T14:48:46.044Z,87.60
2018-08-18T14:51:22.150Z,87.90
2018-08-18T14:53:58.257Z,87.40
2018-08-18T14:56:35.281Z,86.60
2018-08-18T14:59:10.979Z,85.20
2018-08-18T15:01:48.184Z,85.50
2018-08-18T15:04:19.047Z,85.30
2018-08-18T15:06:54.812Z,83.60
2018-08-18T15:09:41.671Z,85.00
2018-08-18T15:12:18.602Z,84.90
2018-08-18T15:14:55.790Z,85.40
2018-08-18T15:17:32.885Z,86.00
2018-08-18T15:20:08.791Z,86.30
2018-08-18T15:22:45.540Z,88.00
2018-08-18T15:25:22.255Z,88.50
2018-08-18T15:28:01.763Z,90.00
2018-08-18T15:30:38.958Z,90.30
2018-08-18T15:33:19.769Z,90.90
2018-08-18T15:35:56.656Z,91.30
2018-08-18T15:41:18.385Z,91.90
2018-08-18T15:43:55.335Z,92.40
2018-08-18T15:46:31.556Z,92.60
2018-08-18T15:49:08.769Z,93.10
2018-08-18T15:51:45.690Z,93.30
2018-08-18T15:54:23.999Z,93.70
2018-08-18T15:57:01.883Z,94.70
2018-08-18T15:59:38.759Z,94.70
2018-08-18T16:02:15.414Z,94.80
2018-08-18T16:04:54.441Z,95.20
2018-08-18T16:07:32.417Z,95.30
2018-08-18T16:10:08.566Z,95.00
2018-08-18T16:12:45.634Z,95.30
2018-08-18T16:15:24.023Z,95.60
2018-08-18T16:18:02.455Z,95.80
2018-08-18T16:20:38.533Z,95.70
2018-08-18T16:23:19.265Z,95.60
2018-08-18T16:25:55.288Z,95.70
2018-08-18T16:28:36.877Z,95.90
2018-08-18T16:31:13.966Z,95.90
2018-08-18T16:33:51.898Z,96.20
2018-08-18T16:36:33.500Z,96.70
2018-08-18T16:39:09.679Z,97.00
2018-08-18T16:41:47.482Z,96.80
2018-08-18T16:44:23.928Z,96.80
2018-08-18T16:47:03.117Z,96.60
2018-08-18T16:49:39.337Z,95.30
2018-08-18T16:52:16.063Z,1.00
2018-08-18T16:54:53.262Z,1.80
2018-08-18T16:57:32.498Z,11.30
2018-08-18T17:00:09.680Z,25.00
2018-08-18T17:02:47.525Z,44.30
2018-08-18T17:05:24.962Z,66.40
2018-08-18T17:08:03.882Z,99.90
2018-08-18T17:10:40.632Z,99.90
2018-08-18T17:13:20.633Z,99.90
2018-08-18T17:15:56.812Z,99.90
2018-08-18T17:18:33.315Z,99.90
2018-08-18T17:21:09.787Z,99.90
2018-08-18T17:23:46.685Z,1.00
2018-08-18T17:26:23.870Z,1.00
2018-08-18T17:29:00.189Z,1.00
2018-08-18T17:31:36.893Z,1.00
2018-08-18T17:34:13.823Z,9.40
2018-08-18T17:36:49.953Z,99.90
2018-08-18T17:39:28.878Z,99.90
2018-08-18T17:42:08.455Z,99.90
2018-08-18T17:44:45.681Z,99.90
2018-08-18T17:47:22.187Z,99.90
2018-08-18T17:49:59.523Z,1.00
2018-08-18T17:52:36.837Z,1.00
2018-08-18T17:55:16.434Z,1.00
2018-08-18T17:57:53.777Z,1.00
2018-08-18T18:00:32.165Z,8.60
2018-08-18T18:03:08.581Z,99.90
2018-08-18T18:05:46.499Z,72.20
2018-08-18T18:08:22.387Z,99.90
2018-08-18T18:10:56.040Z,99.90
2018-08-18T18:13:32.323Z,99.90
2018-08-18T18:16:17.548Z,99.90
2018-08-18T18:18:55.324Z,99.90
2018-08-18T18:21:31.315Z,1.00
2018-08-18T18:24:07.481Z,1.00
2018-08-18T18:26:47.113Z,1.00
2018-08-18T18:29:27.069Z,1.00
2018-08-18T18:32:03.073Z,99.90
2018-08-18T18:34:42.833Z,99.90
2018-08-18T18:37:20.369Z,1.00
2018-08-18T18:39:58.669Z,75.40
2018-08-18T18:42:35.985Z,99.90
2018-08-18T18:45:11.846Z,1.00
2018-08-18T18:47:47.918Z,13.00
2018-08-18T18:50:27.520Z,99.90
2018-08-18T18:53:05.683Z,99.90
2018-08-18T18:55:50.286Z,1.00
2018-08-18T18:58:26.853Z,1.00
2018-08-18T19:01:07.006Z,37.10
2018-08-18T19:03:44.194Z,99.90
2018-08-18T19:06:21.573Z,99.90
2018-08-18T19:09:06.250Z,1.00
2018-08-18T19:11:45.202Z,1.00
2018-08-18T19:14:22.002Z,1.00
2018-08-18T19:16:58.038Z,95.30
2018-08-18T19:19:37.939Z,99.90
2018-08-18T19:22:14.710Z,99.90
2018-08-18T19:24:50.632Z,99.90
2018-08-18T19:27:27.743Z,1.00
2018-08-18T19:30:05.025Z,1.00
2018-08-18T19:32:41.296Z,1.00
2018-08-18T19:35:16.768Z,1.00
2018-08-18T19:37:53.490Z,7.80
2018-08-18T19:40:31.083Z,45.40
2018-08-18T19:43:09.338Z,84.50
2018-08-18T19:45:47.174Z,99.90
2018-08-18T19:48:26.925Z,99.90
2018-08-18T19:51:03.758Z,99.90
2018-08-18T19:53:39.831Z,99.90
2018-08-18T19:56:18.886Z,99.90
2018-08-18T19:58:54.465Z,99.90
2018-08-18T20:01:30.348Z,99.90
2018-08-18T20:04:17.543Z,99.90
2018-08-18T20:06:53.990Z,99.90
2018-08-18T20:09:29.979Z,99.90
2018-08-18T20:12:07.397Z,99.90
2018-08-18T20:14:44.785Z,99.90
2018-08-18T20:17:23.889Z,99.90
2018-08-18T20:19:59.757Z,99.90
2018-08-18T20:22:35.943Z,99.90
2018-08-18T20:25:12.360Z,99.90
2018-08-18T20:27:49.323Z,99.90
2018-08-18T20:30:26.733Z,99.90
2018-08-18T20:33:04.417Z,99.90
2018-08-18T20:35:41.216Z,99.90
2018-08-18T20:38:17.145Z,99.90
2018-08-18T20:40:57.058Z,1.00
2018-08-18T20:43:35.101Z,1.00
2018-08-18T20:46:11.350Z,1.00
2018-08-18T20:48:48.229Z,1.00
2018-08-18T20:51:32.946Z,1.00
2018-08-18T20:54:08.848Z,1.00
2018-08-18T20:56:44.664Z,1.00
2018-08-18T20:59:20.642Z,1.00
2018-08-18T21:01:57.061Z,1.00
2018-08-18T21:04:34.267Z,1.00
2018-08-18T21:07:11.274Z,1.00
2018-08-18T21:09:47.517Z,1.00
2018-08-18T21:12:31.967Z,1.00
2018-08-18T21:15:07.645Z,1.00
2018-08-18T21:17:44.521Z,1.00
2018-08-18T21:20:21.621Z,1.00
2018-08-18T21:23:00.920Z,1.00
2018-08-18T21:25:44.362Z,1.00
2018-08-18T21:28:20.975Z,1.00
2018-08-18T21:30:56.897Z,1.00
2018-08-18T21:33:34.207Z,1.00
2018-08-18T21:36:10.863Z,1.00
2018-08-18T21:38:48.398Z,1.00
2018-08-18T21:41:27.502Z,1.00
2018-08-18T21:44:03.209Z,14.70
2018-08-18T21:46:39.984Z,1.00
2018-08-18T21:49:15.782Z,13.00
2018-08-18T21:51:51.598Z,18.30
2018-08-18T21:54:28.501Z,27.20
2018-08-18T21:57:05.621Z,44.20
2018-08-18T21:59:52.684Z,60.60
2018-08-18T22:02:39.174Z,70.10
2018-08-18T22:05:15.164Z,73.30
2018-08-18T22:07:51.687Z,84.00
2018-08-18T22:10:27.628Z,95.50
2018-08-18T22:13:03.345Z,99.90
2018-08-18T22:15:40.889Z,99.90
2018-08-18T22:18:17.218Z,99.90
2018-08-18T22:20:54.838Z,99.90
2018-08-18T22:23:31.047Z,99.90
2018-08-18T22:26:14.447Z,99.90
2018-08-18T22:29:00.639Z,99.90
2018-08-18T22:31:37.916Z,99.90
2018-08-18T22:34:15.217Z,99.90
2018-08-18T22:36:51.106Z,99.90
2018-08-18T22:39:28.081Z,99.90
2018-08-18T22:42:05.035Z,99.90
2018-08-18T22:44:41.006Z,99.90
2018-08-18T22:47:17.932Z,99.90
2018-08-18T22:49:54.818Z,99.90
2018-08-18T22:52:30.920Z,99.90
2018-08-18T22:55:08.476Z,99.90
2018-08-18T22:57:53.970Z,99.90
2018-08-18T23:00:29.838Z,99.90
2018-08-18T23:03:07.245Z,99.90
2018-08-18T23:05:43.229Z,99.90
2018-08-18T23:08:20.064Z,99.90
2018-08-18T23:10:57.165Z,99.90
2018-08-18T23:13:34.047Z,99.90
2018-08-18T23:16:11.538Z,99.90
2018-08-18T23:18:47.584Z,99.90
2018-08-18T23:21:30.860Z,99.90
2018-08-18T23:24:16.886Z,99.90
2018-08-18T23:26:58.346Z,99.90
2018-08-18T23:29:35.542Z,99.90
2018-08-18T23:32:20.756Z,99.90
2018-08-18T23:34:57.809Z,99.90
2018-08-18T23:37:34.861Z,99.90
2018-08-18T23:40:11.860Z,99.90
2018-08-18T23:42:49.202Z,99.90
2018-08-18T23:45:31.678Z,99.90
2018-08-18T23:48:14.798Z,99.90
2018-08-18T23:50:55.933Z,99.90
2018-08-18T23:53:33.220Z,99.90
2018-08-18T23:56:10.654Z,99.90
2018-08-18T23:58:47.771Z,99.90
